sensor_id;sensor_type;location;lat;lon;timestamp;pressure;altitude;pressure_sealevel;temperature;humidity
2875;BME280;1445;52.600;13.328;2023-03-19T00:02:01;100651.56;;;11.79;100.00
2875;BME280;1445;52.600;13.328;2023-03-19T00:04:27;100654.66;;;11.78;100.00
2875;BME280;1445;52.600;13.328;2023-03-19T00:06:53;100648.22;;;11.68;100.00
2875;BME280;1445;52.600;13.328;2023-03-19T00:09:20;100648.88;;;11.65;100.00
2875;BME280;1445;52.600;13.328;2023-03-19T00:11:46;100648.97;;;11.60;100.00
2875;BME280;1445;52.600;13.328;2023-03-19T00:14:12;100646.81;;;11.57;100.00
2875;BME280;1445;52.600;13.328;2023-03-19T00:16:37;100654.00;;;11.58;100.00
2875;BME280;1445;52.600;13.328;2023-03-19T00:19:03;100652.66;;;11.56;100.00
2875;BME280;1445;52.600;13.328;2023-03-19T00:21:29;100649.19;;;11.50;100.00
2875;BME280;1445;52.600;13.328;2023-03-19T00:23:55;100656.16;;;11.47;100.00
2875;BME280;1445;52.600;13.328;2023-03-19T00:26:30;100646.38;;;11.41;100.00
2875;BME280;1445;52.600;13.328;2023-03-19T00:28:56;100651.38;;;11.39;100.00
2875;BME280;1445;52.600;13.328;2023-03-19T00:31:23;100649.03;;;11.33;100.00
2875;BME280;1445;52.600;13.328;2023-03-19T00:33:48;100656.59;;;11.27;100.00
2875;BME280;1445;52.600;13.328;2023-03-19T00:36:14;100652.00;;;11.22;100.00
2875;BME280;1445;52.600;13.328;2023-03-19T00:38:41;100652.59;;;11.19;100.00
2875;BME280;1445;52.600;13.328;2023-03-19T00:41:07;100656.69;;;11.22;100.00
2875;BME280;1445;52.600;13.328;2023-03-19T00:43:32;100661.19;;;11.18;100.00
2875;BME280;1445;52.600;13.328;2023-03-19T00:45:58;100658.97;;;11.20;100.00
2875;BME280;1445;52.600;13.328;2023-03-19T00:48:24;100661.00;;;11.14;100.00
2875;BME280;1445;52.600;13.328;2023-03-19T00:50:52;100660.19;;;11.14;100.00
2875;BME280;1445;52.600;13.328;2023-03-19T00:53:18;100661.94;;;11.10;100.00
2875;BME280;1445;52.600;13.328;2023-03-19T00:55:43;100648.44;;;11.08;100.00
2875;BME280;1445;52.600;13.328;2023-03-19T00:58:09;100649.16;;;11.00;100.00
2875;BME280;1445;52.600;13.328;2023-03-19T01:00:36;100658.75;;;11.03;100.00
2875;BME280;1445;52.600;13.328;2023-03-19T01:03:04;100653.84;;;10.99;100.00
2875;BME280;1445;52.600;13.328;2023-03-19T01:05:30;100660.28;;;10.95;100.00
2875;BME280;1445;52.600;13.328;2023-03-19T01:07:56;100660.59;;;10.93;100.00
2875;BME280;1445;52.600;13.328;2023-03-19T01:10:23;100664.06;;;10.85;100.00
2875;BME280;1445;52.600;13.328;2023-03-19T01:12:49;100661.81;;;10.87;100.00
2875;BME280;1445;52.600;13.328;2023-03-19T01:15:15;100664.69;;;10.82;100.00
2875;BME280;1445;52.600;13.328;2023-03-19T01:17:41;100662.84;;;10.78;100.00
2875;BME280;1445;52.600;13.328;2023-03-19T01:20:08;100668.44;;;10.72;100.00
2875;BME280;1445;52.600;13.328;2023-03-19T01:22:40;100670.19;;;10.68;100.00
2875;BME280;1445;52.600;13.328;2023-03-19T01:25:07;100672.63;;;10.70;100.00
2875;BME280;1445;52.600;13.328;2023-03-19T01:27:33;100673.84;;;10.64;100.00
2875;BME280;1445;52.600;13.328;2023-03-19T01:29:58;100673.00;;;10.63;100.00
2875;BME280;1445;52.600;13.328;2023-03-19T01:32:24;100665.38;;;10.60;100.00
2875;BME280;1445;52.600;13.328;2023-03-19T01:34:49;100678.63;;;10.58;100.00
2875;BME280;1445;52.600;13.328;2023-03-19T01:37:15;100670.47;;;10.53;100.00
2875;BME280;1445;52.600;13.328;2023-03-19T01:39:40;100681.56;;;10.48;100.00
2875;BME280;1445;52.600;13.328;2023-03-19T01:42:06;100684.03;;;10.49;100.00
2875;BME280;1445;52.600;13.328;2023-03-19T01:44:37;100684.53;;;10.51;100.00
2875;BME280;1445;52.600;13.328;2023-03-19T01:47:14;100689.44;;;10.55;100.00
2875;BME280;1445;52.600;13.328;2023-03-19T01:49:41;100678.00;;;10.47;100.00
2875;BME280;1445;52.600;13.328;2023-03-19T01:52:10;100681.88;;;10.46;100.00
2875;BME280;1445;52.600;13.328;2023-03-19T01:54:37;100672.88;;;10.41;100.00
2875;BME280;1445;52.600;13.328;2023-03-19T01:57:08;100676.66;;;10.45;100.00
2875;BME280;1445;52.600;13.328;2023-03-19T01:59:39;100670.75;;;10.51;100.00
2875;BME280;1445;52.600;13.328;2023-03-19T02:02:26;100676.06;;;10.48;100.00
2875;BME280;1445;52.600;13.328;2023-03-19T02:05:10;100679.13;;;10.46;100.00
2875;BME280;1445;52.600;13.328;2023-03-19T02:07:38;100673.69;;;10.41;100.00
2875;BME280;1445;52.600;13.328;2023-03-19T02:10:07;100669.19;;;10.45;100.00
2875;BME280;1445;52.600;13.328;2023-03-19T02:12:33;100671.66;;;10.47;100.00
2875;BME280;1445;52.600;13.328;2023-03-19T02:14:59;100663.19;;;10.43;100.00
2875;BME280;1445;52.600;13.328;2023-03-19T02:17:26;100655.38;;;10.32;100.00
2875;BME280;1445;52.600;13.328;2023-03-19T02:20:03;100666.13;;;10.33;100.00
2875;BME280;1445;52.600;13.328;2023-03-19T02:22:34;100662.84;;;10.31;100.00
2875;BME280;1445;52.600;13.328;2023-03-19T02:25:10;100650.94;;;10.36;100.00
2875;BME280;1445;52.600;13.328;2023-03-19T02:27:37;100647.84;;;10.37;100.00
2875;BME280;1445;52.600;13.328;2023-03-19T02:30:28;100653.56;;;10.41;100.00
2875;BME280;1445;52.600;13.328;2023-03-19T02:32:55;100649.59;;;10.33;100.00
2875;BME280;1445;52.600;13.328;2023-03-19T02:35:20;100652.84;;;10.35;100.00
2875;BME280;1445;52.600;13.328;2023-03-19T02:37:46;100658.97;;;10.32;100.00
2875;BME280;1445;52.600;13.328;2023-03-19T02:40:21;100655.38;;;10.32;100.00
2875;BME280;1445;52.600;13.328;2023-03-19T02:42:48;100660.19;;;10.26;100.00
2875;BME280;1445;52.600;13.328;2023-03-19T02:45:14;100663.81;;;10.21;100.00
2875;BME280;1445;52.600;13.328;2023-03-19T02:47:40;100667.66;;;10.20;100.00
2875;BME280;1445;52.600;13.328;2023-03-19T02:50:06;100665.00;;;10.15;100.00
2875;BME280;1445;52.600;13.328;2023-03-19T02:52:32;100664.19;;;10.15;100.00
2875;BME280;1445;52.600;13.328;2023-03-19T02:54:57;100662.84;;;10.12;100.00
2875;BME280;1445;52.600;13.328;2023-03-19T02:57:23;100655.41;;;10.13;100.00
2875;BME280;1445;52.600;13.328;2023-03-19T02:59:48;100658.16;;;10.13;100.00
2875;BME280;1445;52.600;13.328;2023-03-19T03:02:14;100655.94;;;10.15;100.00
2875;BME280;1445;52.600;13.328;2023-03-19T03:04:39;100654.88;;;10.11;100.00
2875;BME280;1445;52.600;13.328;2023-03-19T03:07:05;100654.38;;;10.09;100.00
2875;BME280;1445;52.600;13.328;2023-03-19T03:09:31;100651.31;;;10.10;100.00
2875;BME280;1445;52.600;13.328;2023-03-19T03:11:56;100657.03;;;10.14;100.00
2875;BME280;1445;52.600;13.328;2023-03-19T03:14:22;100658.75;;;10.10;100.00
2875;BME280;1445;52.600;13.328;2023-03-19T03:16:47;100644.91;;;10.15;100.00
2875;BME280;1445;52.600;13.328;2023-03-19T03:19:13;100650.94;;;10.17;100.00
2875;BME280;1445;52.600;13.328;2023-03-19T03:21:38;100655.31;;;10.18;100.00
2875;BME280;1445;52.600;13.328;2023-03-19T03:24:04;100658.31;;;10.21;100.00
2875;BME280;1445;52.600;13.328;2023-03-19T03:26:29;100657.47;;;10.21;100.00
2875;BME280;1445;52.600;13.328;2023-03-19T03:28:55;100656.44;;;10.17;100.00
2875;BME280;1445;52.600;13.328;2023-03-19T03:31:21;100658.81;;;10.23;100.00
2875;BME280;1445;52.600;13.328;2023-03-19T03:33:46;100690.88;;;10.00;100.00
2875;BME280;1445;52.600;13.328;2023-03-19T03:36:12;100714.19;;;9.46;100.00
2875;BME280;1445;52.600;13.328;2023-03-19T03:38:38;100693.28;;;9.45;100.00
2875;BME280;1445;52.600;13.328;2023-03-19T03:41:04;100702.59;;;9.49;100.00
2875;BME280;1445;52.600;13.328;2023-03-19T03:43:30;100713.34;;;9.70;100.00
2875;BME280;1445;52.600;13.328;2023-03-19T03:45:55;100716.44;;;9.63;100.00
2875;BME280;1445;52.600;13.328;2023-03-19T03:48:21;100697.47;;;9.62;100.00
2875;BME280;1445;52.600;13.328;2023-03-19T03:50:46;100715.72;;;9.76;100.00
2875;BME280;1445;52.600;13.328;2023-03-19T03:53:12;100701.19;;;9.71;100.00
2875;BME280;1445;52.600;13.328;2023-03-19T03:55:38;100701.19;;;9.71;100.00
2875;BME280;1445;52.600;13.328;2023-03-19T03:58:04;100711.72;;;9.69;100.00
2875;BME280;1445;52.600;13.328;2023-03-19T04:00:29;100706.03;;;9.60;100.00
2875;BME280;1445;52.600;13.328;2023-03-19T04:02:55;100722.84;;;9.59;100.00
2875;BME280;1445;52.600;13.328;2023-03-19T04:05:20;100709.09;;;9.59;100.00
2875;BME280;1445;52.600;13.328;2023-03-19T04:07:46;100721.19;;;9.57;100.00
2875;BME280;1445;52.600;13.328;2023-03-19T04:10:12;100720.13;;;9.35;100.00
2875;BME280;1445;52.600;13.328;2023-03-19T04:12:39;100717.94;;;9.55;100.00
2875;BME280;1445;52.600;13.328;2023-03-19T04:15:07;100726.19;;;9.55;100.00
2875;BME280;1445;52.600;13.328;2023-03-19T04:17:33;100720.16;;;9.53;100.00
2875;BME280;1445;52.600;13.328;2023-03-19T04:20:00;100718.44;;;9.57;100.00
2875;BME280;1445;52.600;13.328;2023-03-19T04:22:26;100724.75;;;9.58;100.00
2875;BME280;1445;52.600;13.328;2023-03-19T04:24:52;100726.41;;;9.59;100.00
2875;BME280;1445;52.600;13.328;2023-03-19T04:27:17;100728.63;;;9.57;100.00
2875;BME280;1445;52.600;13.328;2023-03-19T04:29:42;100732.78;;;9.54;100.00
2875;BME280;1445;52.600;13.328;2023-03-19T04:32:08;100731.91;;;9.59;100.00
2875;BME280;1445;52.600;13.328;2023-03-19T04:34:33;100738.13;;;9.46;100.00
2875;BME280;1445;52.600;13.328;2023-03-19T04:36:59;100740.72;;;9.37;100.00
2875;BME280;1445;52.600;13.328;2023-03-19T04:39:24;100745.69;;;9.35;100.00
2875;BME280;1445;52.600;13.328;2023-03-19T04:41:50;100743.22;;;9.33;100.00
2875;BME280;1445;52.600;13.328;2023-03-19T04:44:16;100750.66;;;9.33;100.00
2875;BME280;1445;52.600;13.328;2023-03-19T04:46:42;100753.03;;;9.21;100.00
2875;BME280;1445;52.600;13.328;2023-03-19T04:49:09;100757.69;;;9.20;100.00
2875;BME280;1445;52.600;13.328;2023-03-19T04:51:34;100758.78;;;9.19;100.00
2875;BME280;1445;52.600;13.328;2023-03-19T04:54:00;100758.28;;;9.17;100.00
2875;BME280;1445;52.600;13.328;2023-03-19T04:56:25;100756.59;;;9.21;100.00
2875;BME280;1445;52.600;13.328;2023-03-19T04:58:52;100752.25;;;9.15;100.00
2875;BME280;1445;52.600;13.328;2023-03-19T05:01:18;100747.28;;;9.17;100.00
2875;BME280;1445;52.600;13.328;2023-03-19T05:03:43;100756.28;;;9.23;100.00
2875;BME280;1445;52.600;13.328;2023-03-19T05:06:09;100761.16;;;9.31;100.00
2875;BME280;1445;52.600;13.328;2023-03-19T05:08:34;100767.94;;;9.15;100.00
2875;BME280;1445;52.600;13.328;2023-03-19T05:11:00;100771.94;;;8.98;100.00
2875;BME280;1445;52.600;13.328;2023-03-19T05:13:25;100768.91;;;8.71;100.00
2875;BME280;1445;52.600;13.328;2023-03-19T05:15:52;100776.81;;;8.77;100.00
2875;BME280;1445;52.600;13.328;2023-03-19T05:18:19;100771.03;;;8.79;100.00
2875;BME280;1445;52.600;13.328;2023-03-19T05:20:45;100782.56;;;8.81;100.00
2875;BME280;1445;52.600;13.328;2023-03-19T05:23:10;100777.59;;;8.83;100.00
2875;BME280;1445;52.600;13.328;2023-03-19T05:25:35;100780.53;;;8.92;100.00
2875;BME280;1445;52.600;13.328;2023-03-19T05:28:02;100769.25;;;8.93;100.00
2875;BME280;1445;52.600;13.328;2023-03-19T05:30:27;100772.31;;;8.92;100.00
2875;BME280;1445;52.600;13.328;2023-03-19T05:32:56;100791.78;;;8.95;100.00
2875;BME280;1445;52.600;13.328;2023-03-19T05:35:22;100808.31;;;8.90;100.00
2875;BME280;1445;52.600;13.328;2023-03-19T05:37:48;100821.53;;;8.88;100.00
2875;BME280;1445;52.600;13.328;2023-03-19T05:40:14;100797.41;;;8.80;100.00
2875;BME280;1445;52.600;13.328;2023-03-19T05:42:41;100789.72;;;8.77;100.00
2875;BME280;1445;52.600;13.328;2023-03-19T05:45:06;100792.06;;;8.59;100.00
2875;BME280;1445;52.600;13.328;2023-03-19T05:47:32;100794.31;;;8.57;100.00
2875;BME280;1445;52.600;13.328;2023-03-19T05:49:59;100795.13;;;8.58;100.00
2875;BME280;1445;52.600;13.328;2023-03-19T05:52:24;100799.50;;;8.59;100.00
2875;BME280;1445;52.600;13.328;2023-03-19T05:54:50;100786.00;;;8.63;100.00
2875;BME280;1445;52.600;13.328;2023-03-19T05:57:15;100780.25;;;8.59;100.00
2875;BME280;1445;52.600;13.328;2023-03-19T05:59:41;100777.09;;;8.42;100.00
2875;BME280;1445;52.600;13.328;2023-03-19T06:02:07;100776.84;;;8.43;100.00
2875;BME280;1445;52.600;13.328;2023-03-19T06:04:32;100779.03;;;8.41;100.00
2875;BME280;1445;52.600;13.328;2023-03-19T06:06:58;100782.03;;;8.45;100.00
2875;BME280;1445;52.600;13.328;2023-03-19T06:09:23;100781.97;;;8.55;100.00
2875;BME280;1445;52.600;13.328;2023-03-19T06:11:49;100792.56;;;8.67;100.00
2875;BME280;1445;52.600;13.328;2023-03-19T06:14:14;100804.09;;;8.69;100.00
2875;BME280;1445;52.600;13.328;2023-03-19T06:16:40;100812.28;;;8.79;100.00
2875;BME280;1445;52.600;13.328;2023-03-19T06:19:05;100820.50;;;8.79;100.00
2875;BME280;1445;52.600;13.328;2023-03-19T06:21:31;100832.53;;;8.88;100.00
2875;BME280;1445;52.600;13.328;2023-03-19T06:23:57;100842.91;;;8.96;100.00
2875;BME280;1445;52.600;13.328;2023-03-19T06:26:23;100847.84;;;8.99;100.00
2875;BME280;1445;52.600;13.328;2023-03-19T06:28:49;100849.41;;;9.05;100.00
2875;BME280;1445;52.600;13.328;2023-03-19T06:31:14;100844.13;;;9.14;100.00
2875;BME280;1445;52.600;13.328;2023-03-19T06:33:40;100842.72;;;9.17;100.00
2875;BME280;1445;52.600;13.328;2023-03-19T06:36:06;100839.88;;;9.27;100.00
2875;BME280;1445;52.600;13.328;2023-03-19T06:38:32;100844.97;;;9.39;100.00
2875;BME280;1445;52.600;13.328;2023-03-19T06:40:57;100850.59;;;9.52;100.00
2875;BME280;1445;52.600;13.328;2023-03-19T06:43:22;100846.84;;;9.67;100.00
2875;BME280;1445;52.600;13.328;2023-03-19T06:45:48;100861.63;;;9.76;100.00
2875;BME280;1445;52.600;13.328;2023-03-19T06:48:13;100895.91;;;9.65;100.00
2875;BME280;1445;52.600;13.328;2023-03-19T06:50:40;100990.63;;;9.25;100.00
2875;BME280;1445;52.600;13.328;2023-03-19T06:53:06;100981.00;;;8.88;100.00
2875;BME280;1445;52.600;13.328;2023-03-19T06:55:32;100932.59;;;8.87;100.00
2875;BME280;1445;52.600;13.328;2023-03-19T06:57:57;100911.09;;;8.94;100.00
2875;BME280;1445;52.600;13.328;2023-03-19T07:00:23;100915.50;;;8.95;100.00
2875;BME280;1445;52.600;13.328;2023-03-19T07:02:48;100939.63;;;9.03;100.00
2875;BME280;1445;52.600;13.328;2023-03-19T07:05:14;100969.84;;;9.08;100.00
2875;BME280;1445;52.600;13.328;2023-03-19T07:07:40;101022.19;;;8.93;100.00
2875;BME280;1445;52.600;13.328;2023-03-19T07:10:06;101027.75;;;8.83;100.00
2875;BME280;1445;52.600;13.328;2023-03-19T07:12:33;101047.28;;;8.76;100.00
2875;BME280;1445;52.600;13.328;2023-03-19T07:14:58;101065.50;;;8.67;100.00
2875;BME280;1445;52.600;13.328;2023-03-19T07:17:24;101061.94;;;8.62;100.00
2875;BME280;1445;52.600;13.328;2023-03-19T07:19:50;101047.63;;;8.59;100.00
2875;BME280;1445;52.600;13.328;2023-03-19T07:22:15;101031.09;;;8.70;100.00
2875;BME280;1445;52.600;13.328;2023-03-19T07:24:41;101019.03;;;8.71;100.00
2875;BME280;1445;52.600;13.328;2023-03-19T07:27:06;101020.63;;;8.77;100.00
2875;BME280;1445;52.600;13.328;2023-03-19T07:29:32;101034.88;;;8.89;100.00
2875;BME280;1445;52.600;13.328;2023-03-19T07:31:57;101059.56;;;8.94;100.00
2875;BME280;1445;52.600;13.328;2023-03-19T07:34:23;101061.28;;;8.85;100.00
2875;BME280;1445;52.600;13.328;2023-03-19T07:36:49;100988.66;;;8.91;100.00
2875;BME280;1445;52.600;13.328;2023-03-19T07:39:15;100965.59;;;8.87;100.00
2875;BME280;1445;52.600;13.328;2023-03-19T07:41:40;100944.34;;;8.98;100.00
2875;BME280;1445;52.600;13.328;2023-03-19T07:44:09;100964.91;;;9.05;100.00
2875;BME280;1445;52.600;13.328;2023-03-19T07:46:36;100976.44;;;9.13;100.00
2875;BME280;1445;52.600;13.328;2023-03-19T07:49:01;100967.81;;;9.19;100.00
2875;BME280;1445;52.600;13.328;2023-03-19T07:51:27;100964.16;;;9.34;100.00
2875;BME280;1445;52.600;13.328;2023-03-19T07:53:52;100955.34;;;9.37;100.00
2875;BME280;1445;52.600;13.328;2023-03-19T07:56:18;100965.47;;;9.42;100.00
2875;BME280;1445;52.600;13.328;2023-03-19T07:58:43;100968.78;;;9.68;100.00
2875;BME280;1445;52.600;13.328;2023-03-19T08:01:09;100961.59;;;9.72;100.00
2875;BME280;1445;52.600;13.328;2023-03-19T08:03:34;100961.72;;;9.86;100.00
2875;BME280;1445;52.600;13.328;2023-03-19T08:06:00;100962.75;;;9.95;100.00
2875;BME280;1445;52.600;13.328;2023-03-19T08:08:25;100965.81;;;9.93;100.00
2875;BME280;1445;52.600;13.328;2023-03-19T08:10:54;100971.78;;;10.00;100.00
2875;BME280;1445;52.600;13.328;2023-03-19T08:13:20;100991.00;;;10.06;100.00
2875;BME280;1445;52.600;13.328;2023-03-19T08:15:48;100996.38;;;9.92;100.00
2875;BME280;1445;52.600;13.328;2023-03-19T08:18:13;100987.22;;;9.96;100.00
2875;BME280;1445;52.600;13.328;2023-03-19T08:20:39;101002.69;;;9.92;100.00
2875;BME280;1445;52.600;13.328;2023-03-19T08:23:04;101017.50;;;9.96;100.00
2875;BME280;1445;52.600;13.328;2023-03-19T08:25:30;101032.06;;;9.73;100.00
2875;BME280;1445;52.600;13.328;2023-03-19T08:27:58;101032.75;;;9.54;100.00
2875;BME280;1445;52.600;13.328;2023-03-19T08:30:23;101027.06;;;9.46;100.00
2875;BME280;1445;52.600;13.328;2023-03-19T08:32:49;101041.44;;;9.38;100.00
2875;BME280;1445;52.600;13.328;2023-03-19T08:35:15;101045.59;;;9.30;100.00
2875;BME280;1445;52.600;13.328;2023-03-19T08:37:40;101042.00;;;9.35;100.00
2875;BME280;1445;52.600;13.328;2023-03-19T08:40:06;101056.53;;;9.40;100.00
2875;BME280;1445;52.600;13.328;2023-03-19T08:42:32;101071.78;;;9.22;100.00
2875;BME280;1445;52.600;13.328;2023-03-19T08:44:58;101063.84;;;9.21;100.00
2875;BME280;1445;52.600;13.328;2023-03-19T08:47:24;101064.34;;;9.23;100.00
2875;BME280;1445;52.600;13.328;2023-03-19T08:49:50;101049.22;;;9.25;100.00
2875;BME280;1445;52.600;13.328;2023-03-19T08:52:17;101043.16;;;9.28;100.00
2875;BME280;1445;52.600;13.328;2023-03-19T08:54:43;101034.56;;;9.35;100.00
2875;BME280;1445;52.600;13.328;2023-03-19T08:57:08;101062.94;;;9.30;100.00
2875;BME280;1445;52.600;13.328;2023-03-19T08:59:34;101050.00;;;9.31;100.00
2875;BME280;1445;52.600;13.328;2023-03-19T09:01:59;101054.75;;;9.20;100.00
2875;BME280;1445;52.600;13.328;2023-03-19T09:04:25;101045.59;;;9.30;100.00
2875;BME280;1445;52.600;13.328;2023-03-19T09:06:51;101036.28;;;9.26;100.00
2875;BME280;1445;52.600;13.328;2023-03-19T09:09:18;101035.75;;;9.24;100.00
2875;BME280;1445;52.600;13.328;2023-03-19T09:11:44;101032.97;;;9.29;100.00
2875;BME280;1445;52.600;13.328;2023-03-19T09:14:10;101021.38;;;9.32;100.00
2875;BME280;1445;52.600;13.328;2023-03-19T09:16:36;101017.28;;;9.29;100.00
2875;BME280;1445;52.600;13.328;2023-03-19T09:19:01;101012.50;;;9.40;100.00
2875;BME280;1445;52.600;13.328;2023-03-19T09:21:27;101016.88;;;9.46;100.00
2875;BME280;1445;52.600;13.328;2023-03-19T09:23:52;101011.84;;;9.53;100.00
2875;BME280;1445;52.600;13.328;2023-03-19T09:26:18;100995.31;;;9.59;100.00
2875;BME280;1445;52.600;13.328;2023-03-19T09:28:43;100984.78;;;9.66;100.00
2875;BME280;1445;52.600;13.328;2023-03-19T09:31:09;100983.09;;;9.70;100.00
2875;BME280;1445;52.600;13.328;2023-03-19T09:33:35;100981.41;;;9.74;100.00
2875;BME280;1445;52.600;13.328;2023-03-19T09:36:01;100978.88;;;9.77;100.00
2875;BME280;1445;52.600;13.328;2023-03-19T09:38:27;100988.19;;;9.87;100.00
2875;BME280;1445;52.600;13.328;2023-03-19T09:41:12;100979.50;;;9.98;100.00
2875;BME280;1445;52.600;13.328;2023-03-19T09:44:00;100981.91;;;10.05;100.00
2875;BME280;1445;52.600;13.328;2023-03-19T09:49:24;100975.78;;;10.37;100.00
2875;BME280;1445;52.600;13.328;2023-03-19T09:54:43;100968.75;;;10.88;100.00
2875;BME280;1445;52.600;13.328;2023-03-19T09:57:11;100960.81;;;11.19;100.00
2875;BME280;1445;52.600;13.328;2023-03-19T09:59:38;100960.94;;;11.46;100.00
2875;BME280;1445;52.600;13.328;2023-03-19T10:02:28;100957.53;;;11.82;100.00
2875;BME280;1445;52.600;13.328;2023-03-19T10:15:34;100907.91;;;12.82;100.00
2875;BME280;1445;52.600;13.328;2023-03-19T10:20:37;100885.78;;;13.05;100.00
2875;BME280;1445;52.600;13.328;2023-03-19T10:23:37;100882.28;;;13.13;100.00
2875;BME280;1445;52.600;13.328;2023-03-19T10:26:07;100872.84;;;13.14;100.00
2875;BME280;1445;52.600;13.328;2023-03-19T10:28:35;100885.66;;;13.32;100.00
2875;BME280;1445;52.600;13.328;2023-03-19T10:31:11;100882.31;;;13.22;100.00
2875;BME280;1445;52.600;13.328;2023-03-19T10:33:44;100870.03;;;13.28;100.00
2875;BME280;1445;52.600;13.328;2023-03-19T10:36:14;100864.88;;;13.44;100.00
2875;BME280;1445;52.600;13.328;2023-03-19T10:38:42;100859.34;;;13.44;100.00
2875;BME280;1445;52.600;13.328;2023-03-19T10:41:28;100857.50;;;13.30;100.00
2875;BME280;1445;52.600;13.328;2023-03-19T10:44:00;100861.72;;;13.28;100.00
2875;BME280;1445;52.600;13.328;2023-03-19T10:46:26;100856.00;;;13.24;100.00
2875;BME280;1445;52.600;13.328;2023-03-19T10:48:51;100859.50;;;13.39;100.00
2875;BME280;1445;52.600;13.328;2023-03-19T10:51:21;100857.47;;;13.08;100.00
2875;BME280;1445;52.600;13.328;2023-03-19T10:53:51;100861.63;;;12.97;100.00
2875;BME280;1445;52.600;13.328;2023-03-19T10:56:23;100859.00;;;13.14;100.00
2875;BME280;1445;52.600;13.328;2023-03-19T10:59:01;100863.25;;;12.98;100.00
2875;BME280;1445;52.600;13.328;2023-03-19T11:01:32;100852.38;;;13.01;100.00
2875;BME280;1445;52.600;13.328;2023-03-19T11:04:01;100859.81;;;12.92;100.00
2875;BME280;1445;52.600;13.328;2023-03-19T11:06:34;100856.13;;;12.74;100.00
2875;BME280;1445;52.600;13.328;2023-03-19T11:14:30;100872.19;;;12.50;100.00
2875;BME280;1445;52.600;13.328;2023-03-19T11:19:38;100882.38;;;13.08;100.00
2875;BME280;1445;52.600;13.328;2023-03-19T11:24:38;100873.59;;;12.83;100.00
2875;BME280;1445;52.600;13.328;2023-03-19T11:27:06;100875.16;;;12.76;100.00
2875;BME280;1445;52.600;13.328;2023-03-19T11:29:36;100879.16;;;12.70;100.00
2875;BME280;1445;52.600;13.328;2023-03-19T11:34:51;100862.63;;;13.23;100.00
2875;BME280;1445;52.600;13.328;2023-03-19T11:40:19;100853.13;;;13.38;100.00
2875;BME280;1445;52.600;13.328;2023-03-19T11:45:40;100849.72;;;13.19;100.00
2875;BME280;1445;52.600;13.328;2023-03-19T12:04:52;100847.59;;;13.78;100.00
2875;BME280;1445;52.600;13.328;2023-03-19T12:16:04;100843.13;;;13.59;100.00
2875;BME280;1445;52.600;13.328;2023-03-19T12:21:24;100849.72;;;13.81;100.00
2875;BME280;1445;52.600;13.328;2023-03-19T12:39:43;100794.72;;;15.78;100.00
2875;BME280;1445;52.600;13.328;2023-03-19T12:42:15;100790.50;;;16.64;100.00
2875;BME280;1445;52.600;13.328;2023-03-19T12:44:48;100775.28;;;17.28;100.00
2875;BME280;1445;52.600;13.328;2023-03-19T12:47:19;100774.38;;;17.48;100.00
2875;BME280;1445;52.600;13.328;2023-03-19T12:50:00;100765.81;;;19.30;100.00
2875;BME280;1445;52.600;13.328;2023-03-19T12:57:59;100764.19;;;22.72;100.00
2875;BME280;1445;52.600;13.328;2023-03-19T13:00:31;100755.53;;;22.88;100.00
2875;BME280;1445;52.600;13.328;2023-03-19T13:03:28;100761.53;;;22.86;100.00
2875;BME280;1445;52.600;13.328;2023-03-19T13:06:19;100756.69;;;22.16;100.00
2875;BME280;1445;52.600;13.328;2023-03-19T13:14:37;100760.25;;;21.37;100.00
2875;BME280;1445;52.600;13.328;2023-03-19T13:19:46;100760.78;;;21.23;100.00
2875;BME280;1445;52.600;13.328;2023-03-19T13:22:16;100762.22;;;21.86;100.00
2875;BME280;1445;52.600;13.328;2023-03-19T13:24:44;100773.03;;;20.34;100.00
2875;BME280;1445;52.600;13.328;2023-03-19T13:27:24;100764.66;;;19.63;100.00
2875;BME280;1445;52.600;13.328;2023-03-19T13:30:07;100774.69;;;18.89;100.00
2875;BME280;1445;52.600;13.328;2023-03-19T13:32:45;100769.28;;;18.68;100.00
2875;BME280;1445;52.600;13.328;2023-03-19T13:37:58;100766.03;;;18.94;100.00
2875;BME280;1445;52.600;13.328;2023-03-19T13:40:45;100758.34;;;18.63;100.00
2875;BME280;1445;52.600;13.328;2023-03-19T13:55:57;100753.53;;;18.07;100.00
2875;BME280;1445;52.600;13.328;2023-03-19T13:58:25;100752.94;;;18.13;100.00
2875;BME280;1445;52.600;13.328;2023-03-19T14:01:56;100754.66;;;17.90;100.00
2875;BME280;1445;52.600;13.328;2023-03-19T14:06:44;100745.09;;;18.59;100.00
2875;BME280;1445;52.600;13.328;2023-03-19T14:09:33;100746.09;;;18.95;100.00
2875;BME280;1445;52.600;13.328;2023-03-19T14:15:34;100735.22;;;17.94;100.00
2875;BME280;1445;52.600;13.328;2023-03-19T14:22:36;100731.34;;;18.67;100.00
2875;BME280;1445;52.600;13.328;2023-03-19T14:25:21;100722.31;;;19.49;100.00
2875;BME280;1445;52.600;13.328;2023-03-19T14:27:58;100732.06;;;20.25;100.00
2875;BME280;1445;52.600;13.328;2023-03-19T14:30:34;100727.84;;;21.39;100.00
2875;BME280;1445;52.600;13.328;2023-03-19T14:33:04;100728.47;;;22.09;100.00
2875;BME280;1445;52.600;13.328;2023-03-19T14:35:39;100728.97;;;22.14;100.00
2875;BME280;1445;52.600;13.328;2023-03-19T14:38:39;100731.84;;;22.89;100.00
2875;BME280;1445;52.600;13.328;2023-03-19T14:41:14;100730.09;;;23.11;100.00
2875;BME280;1445;52.600;13.328;2023-03-19T14:52:30;100732.44;;;23.50;100.00
2875;BME280;1445;52.600;13.328;2023-03-19T14:55:06;100723.75;;;24.46;94.97
2875;BME280;1445;52.600;13.328;2023-03-19T14:57:33;100715.75;;;24.59;85.88
2875;BME280;1445;52.600;13.328;2023-03-19T15:00:00;100720.16;;;23.76;85.44
2875;BME280;1445;52.600;13.328;2023-03-19T15:04:54;100719.06;;;23.36;100.00
2875;BME280;1445;52.600;13.328;2023-03-19T15:07:26;100716.19;;;23.80;97.40
2875;BME280;1445;52.600;13.328;2023-03-19T15:09:54;100710.72;;;24.13;93.40
2875;BME280;1445;52.600;13.328;2023-03-19T15:17:34;100717.13;;;22.62;92.81
2875;BME280;1445;52.600;13.328;2023-03-19T15:20:02;100717.34;;;22.83;95.46